createdAt,value
2018-08-09T15:07:37.640Z,25.30
2018-08-09T15:10:06.228Z,25.40
2018-08-09T15:12:34.908Z,25.30
2018-08-09T15:15:03.554Z,25.30
2018-08-09T15:17:32.026Z,25.10
2018-08-09T15:20:00.653Z,25.20
2018-08-09T15:22:29.242Z,25.20
2018-08-09T15:24:57.993Z,25.10
2018-08-09T15:27:26.562Z,25.20
2018-08-09T15:29:55.080Z,25.10
2018-08-09T15:32:23.685Z,25.00
2018-08-09T15:34:52.252Z,24.90
2018-08-09T15:37:20.796Z,24.90
2018-08-09T15:39:49.399Z,24.90
2018-08-09T15:42:17.935Z,24.90
2018-08-09T15:44:46.495Z,24.80
2018-08-09T15:47:15.059Z,24.70
2018-08-09T15:49:43.601Z,24.50
2018-08-09T15:52:12.068Z,24.60
2018-08-09T15:54:40.651Z,24.60
2018-08-09T15:57:09.193Z,24.70
2018-08-09T15:59:37.692Z,24.70
2018-08-09T16:02:06.223Z,24.80
2018-08-09T16:04:34.753Z,24.80
2018-08-09T16:07:03.514Z,24.70
2018-08-09T16:09:32.030Z,24.60
2018-08-09T16:12:00.672Z,24.70
2018-08-09T16:14:29.237Z,24.70
2018-08-09T16:16:57.773Z,24.60
2018-08-09T16:19:26.384Z,24.50
2018-08-09T16:21:54.922Z,24.50
2018-08-09T16:24:23.611Z,24.50
2018-08-09T16:26:52.136Z,24.50
2018-08-09T16:29:20.803Z,24.40
2018-08-09T16:31:49.505Z,24.30
2018-08-09T16:34:18.092Z,24.30
2018-08-09T16:39:15.078Z,24.20
2018-08-09T16:41:43.796Z,24.10
2018-08-09T16:44:12.449Z,24.00
2018-08-09T16:46:41.055Z,23.90
2018-08-09T16:49:09.594Z,23.40
2018-08-09T16:51:38.168Z,22.80
2018-08-09T16:54:06.700Z,22.40
2018-08-09T16:56:35.718Z,22.10
2018-08-09T16:59:04.858Z,21.90
2018-08-09T17:01:33.490Z,21.80
2018-08-09T17:04:02.078Z,21.60
2018-08-09T17:06:30.747Z,21.60
2018-08-09T17:08:59.397Z,21.40
2018-08-09T17:11:28.058Z,21.30
2018-08-09T17:13:56.731Z,21.40
2018-08-09T17:16:25.404Z,21.20
2018-08-09T17:19:31.519Z,21.10
2018-08-09T17:22:00.063Z,21.00
2018-08-09T17:24:28.536Z,21.00
2018-08-09T17:26:57.152Z,21.00
2018-08-09T17:29:25.826Z,20.90
2018-08-09T17:31:54.305Z,21.00
2018-08-09T17:34:22.808Z,20.90
2018-08-09T17:36:51.308Z,20.90
2018-08-09T17:39:19.821Z,21.00
2018-08-09T17:41:48.257Z,20.90
2018-08-09T17:44:16.746Z,20.90
2018-08-09T17:46:45.668Z,20.90
2018-08-09T17:49:14.197Z,20.90
2018-08-09T17:51:42.665Z,20.90
2018-08-09T17:54:11.189Z,20.90
2018-08-09T17:56:39.720Z,20.90
2018-08-09T17:59:08.776Z,20.80
2018-08-09T18:01:37.270Z,20.80
2018-08-09T18:04:05.752Z,20.80
2018-08-09T18:06:34.271Z,20.80
2018-08-09T18:09:02.797Z,20.70
2018-08-09T18:11:31.318Z,20.60
2018-08-09T18:13:59.773Z,20.60
2018-08-09T18:16:28.277Z,20.60
2018-08-09T18:18:56.693Z,20.60
2018-08-09T18:21:25.174Z,20.50
2018-08-09T18:23:53.804Z,20.60
2018-08-09T18:26:22.556Z,20.60
2018-08-09T18:28:51.067Z,20.60
2018-08-09T18:31:19.552Z,20.60
2018-08-09T18:33:48.095Z,20.60
2018-08-09T18:36:16.580Z,20.50
2018-08-09T18:38:45.085Z,20.50
2018-08-09T18:41:14.501Z,20.40
2018-08-09T18:43:43.124Z,20.30
2018-08-09T18:46:12.458Z,20.30
2018-08-09T18:48:40.989Z,20.20
2018-08-09T18:51:09.436Z,20.20
2018-08-09T18:53:37.962Z,20.20
2018-08-09T18:56:06.491Z,20.10
2018-08-09T18:58:34.921Z,20.10
2018-08-09T19:01:03.456Z,20.10
2018-08-09T19:03:31.949Z,20.00
2018-08-09T19:06:00.429Z,20.00
2018-08-09T19:08:28.872Z,20.00
2018-08-09T19:10:57.844Z,20.00
2018-08-09T19:13:26.367Z,19.90
2018-08-09T19:15:54.864Z,19.80
2018-08-09T19:18:23.332Z,19.80
2018-08-09T19:20:51.828Z,19.80
2018-08-09T19:23:20.340Z,19.80
2018-08-09T19:25:48.843Z,19.60
2018-08-09T19:28:17.339Z,19.60
2018-08-09T19:30:45.881Z,19.50
2018-08-09T19:33:14.398Z,19.40
2018-08-09T19:35:42.853Z,19.40
2018-08-09T19:38:11.395Z,19.40
2018-08-09T19:40:39.861Z,19.20
2018-08-09T19:43:08.288Z,19.20
2018-08-09T19:45:36.786Z,19.00
2018-08-09T19:48:05.256Z,19.00
2018-08-09T19:50:33.899Z,19.00
2018-08-09T19:53:02.656Z,18.90
2018-08-09T19:55:31.136Z,18.80
2018-08-09T19:57:59.638Z,18.90
2018-08-09T20:00:29.494Z,18.80
2018-08-09T20:05:50.920Z,18.80
2018-08-09T20:08:19.459Z,18.50
2018-08-09T20:10:47.944Z,18.40
2018-08-09T20:13:16.833Z,18.10
2018-08-09T20:15:45.384Z,17.90
2018-08-09T20:18:14.096Z,17.70
2018-08-09T20:20:42.765Z,17.60
2018-08-09T20:23:11.421Z,17.50
2018-08-09T20:25:39.905Z,17.50
2018-08-09T20:28:08.416Z,17.50
2018-08-09T20:30:37.352Z,17.40
2018-08-09T20:33:06.004Z,17.50
2018-08-09T20:35:34.468Z,17.50
2018-08-09T20:38:03.029Z,17.50
2018-08-09T20:40:31.514Z,17.40
2018-08-09T20:43:00.038Z,17.40
2018-08-09T20:45:28.480Z,17.40
2018-08-09T20:47:57.041Z,17.30
2018-08-09T20:50:27.863Z,17.30
2018-08-09T20:52:56.423Z,17.30
2018-08-09T20:55:24.948Z,17.30
2018-08-09T20:57:54.375Z,17.30
2018-08-09T21:00:26.507Z,17.30
2018-08-09T21:02:56.312Z,17.30
2018-08-09T21:05:28.386Z,17.20
2018-08-09T21:07:57.199Z,17.20
2018-08-09T21:10:26.110Z,17.20
2018-08-09T21:12:54.700Z,17.20
2018-08-09T21:15:23.270Z,17.10
2018-08-09T21:17:51.729Z,17.00
2018-08-09T21:20:20.340Z,17.00
2018-08-09T21:22:49.568Z,17.00
2018-08-09T21:25:18.419Z,17.00
2018-08-09T21:27:47.672Z,16.90
2018-08-09T21:30:18.054Z,16.90
2018-08-09T21:32:47.244Z,16.90
2018-08-09T21:35:15.868Z,16.90
2018-08-09T21:37:44.935Z,16.80
2018-08-09T21:40:14.416Z,16.80
2018-08-09T21:42:43.064Z,16.80
2018-08-09T21:45:13.841Z,16.80
2018-08-09T21:47:42.612Z,16.90
2018-08-09T21:50:13.734Z,16.80
2018-08-09T21:52:42.636Z,16.80
2018-08-09T21:55:12.088Z,16.80
2018-08-09T21:57:41.001Z,16.80
2018-08-09T22:01:13.073Z,16.80
2018-08-09T22:03:41.598Z,16.80
2018-08-09T22:06:15.430Z,16.70
2018-08-09T22:08:49.472Z,16.70
2018-08-09T22:11:23.241Z,16.70
2018-08-09T22:13:56.984Z,16.70
2018-08-09T22:16:30.853Z,16.70
2018-08-09T22:19:04.632Z,16.60
2018-08-09T22:21:38.365Z,16.60
2018-08-09T22:24:06.868Z,16.50
2018-08-09T22:26:35.316Z,16.60
2018-08-09T22:29:03.860Z,16.50
2018-08-09T22:31:32.374Z,16.30
2018-08-09T22:34:00.891Z,16.20
2018-08-09T22:36:29.418Z,16.10
2018-08-09T22:38:57.948Z,16.10
2018-08-09T22:41:26.429Z,16.00
2018-08-09T22:43:54.916Z,16.00
2018-08-09T22:46:23.372Z,15.90
2018-08-09T22:48:52.095Z,15.80
2018-08-09T22:51:21.819Z,15.70
2018-08-09T22:53:50.437Z,15.60
2018-08-09T22:56:19.020Z,15.60
2018-08-09T22:58:47.629Z,15.50
2018-08-09T23:01:16.507Z,15.50
2018-08-09T23:03:45.119Z,15.60
2018-08-09T23:06:16.075Z,15.60
2018-08-09T23:08:44.709Z,15.60
2018-08-09T23:11:13.300Z,15.60
2018-08-09T23:13:41.802Z,15.60
2018-08-09T23:16:10.287Z,15.70
2018-08-09T23:18:38.848Z,15.60
2018-08-09T23:21:07.308Z,15.60
2018-08-09T23:23:35.832Z,15.60
2018-08-09T23:26:04.375Z,15.70
2018-08-09T23:28:32.884Z,15.70
2018-08-09T23:31:01.374Z,15.70
2018-08-09T23:33:29.891Z,15.70
2018-08-09T23:35:58.390Z,15.60
2018-08-09T23:38:26.820Z,15.70
2018-08-09T23:40:55.262Z,15.70
2018-08-09T23:43:23.741Z,15.60
2018-08-09T23:45:52.227Z,15.70
2018-08-09T23:48:20.739Z,15.70
2018-08-09T23:50:49.237Z,15.70
2018-08-09T23:53:18.234Z,15.60
2018-08-09T23:55:46.965Z,15.60
2018-08-09T23:58:15.578Z,15.50
